sensor_id;sensor_type;location;lat;lon;timestamp;pressure;altitude;pressure_sealevel;temperature;humidity
73516;BME280;61763;51.416;5.442;2022-12-20T00:01:57;101306.81;;;9.96;92.18
73516;BME280;61763;51.416;5.442;2022-12-20T00:04:22;101303.13;;;9.98;91.74
73516;BME280;61763;51.416;5.442;2022-12-20T00:06:47;101308.66;;;10.17;91.02
73516;BME280;61763;51.416;5.442;2022-12-20T00:09:13;101311.09;;;10.24;90.37
73516;BME280;61763;51.416;5.442;2022-12-20T00:11:39;101317.94;;;10.32;89.58
73516;BME280;61763;51.416;5.442;2022-12-20T00:14:06;101311.31;;;10.41;89.33
73516;BME280;61763;51.416;5.442;2022-12-20T00:16:32;101304.22;;;10.39;89.27
73516;BME280;61763;51.416;5.442;2022-12-20T00:19:02;101294.16;;;10.42;89.13
73516;BME280;61763;51.416;5.442;2022-12-20T00:21:29;101297.63;;;10.46;88.99
73516;BME280;61763;51.416;5.442;2022-12-20T00:23:55;101297.53;;;10.47;88.57
73516;BME280;61763;51.416;5.442;2022-12-20T00:26:26;101289.44;;;10.47;88.30
73516;BME280;61763;51.416;5.442;2022-12-20T00:28:52;101291.50;;;10.41;88.83
73516;BME280;61763;51.416;5.442;2022-12-20T00:31:19;101283.25;;;10.45;88.58
73516;BME280;61763;51.416;5.442;2022-12-20T00:33:48;101291.06;;;10.51;88.45
73516;BME280;61763;51.416;5.442;2022-12-20T00:36:14;101284.47;;;10.59;87.89
73516;BME280;61763;51.416;5.442;2022-12-20T00:38:40;101291.00;;;10.53;88.38
73516;BME280;61763;51.416;5.442;2022-12-20T00:41:11;101286.41;;;10.55;88.21
73516;BME280;61763;51.416;5.442;2022-12-20T00:43:38;101289.31;;;10.71;87.27
73516;BME280;61763;51.416;5.442;2022-12-20T00:46:05;101261.59;;;10.67;87.18
73516;BME280;61763;51.416;5.442;2022-12-20T00:48:32;101263.06;;;10.75;86.95
73516;BME280;61763;51.416;5.442;2022-12-20T00:51:00;101274.47;;;10.81;86.38
73516;BME280;61763;51.416;5.442;2022-12-20T00:53:25;101275.34;;;10.82;86.53
73516;BME280;61763;51.416;5.442;2022-12-20T00:55:51;101277.97;;;10.83;86.78
73516;BME280;61763;51.416;5.442;2022-12-20T00:58:16;101279.44;;;10.91;86.26
73516;BME280;61763;51.416;5.442;2022-12-20T01:00:43;101282.22;;;10.89;86.58
73516;BME280;61763;51.416;5.442;2022-12-20T01:03:08;101276.81;;;10.89;86.65
73516;BME280;61763;51.416;5.442;2022-12-20T01:05:34;101268.72;;;10.89;86.91
73516;BME280;61763;51.416;5.442;2022-12-20T01:07:59;101271.91;;;10.78;87.97
73516;BME280;61763;51.416;5.442;2022-12-20T01:10:25;101284.34;;;10.82;88.96
73516;BME280;61763;51.416;5.442;2022-12-20T01:12:51;101291.75;;;10.77;90.58
73516;BME280;61763;51.416;5.442;2022-12-20T01:15:16;101300.25;;;10.68;91.28
73516;BME280;61763;51.416;5.442;2022-12-20T01:17:42;101294.44;;;10.57;92.52
73516;BME280;61763;51.416;5.442;2022-12-20T01:20:08;101286.63;;;10.50;94.25
73516;BME280;61763;51.416;5.442;2022-12-20T01:22:33;101279.84;;;10.40;96.31
73516;BME280;61763;51.416;5.442;2022-12-20T01:24:59;101275.25;;;10.20;99.48
73516;BME280;61763;51.416;5.442;2022-12-20T01:27:24;101296.28;;;10.12;100.00
73516;BME280;61763;51.416;5.442;2022-12-20T01:29:50;101292.69;;;10.11;100.00
73516;BME280;61763;51.416;5.442;2022-12-20T01:32:15;101298.69;;;9.97;100.00
73516;BME280;61763;51.416;5.442;2022-12-20T01:34:41;101302.38;;;9.95;100.00
73516;BME280;61763;51.416;5.442;2022-12-20T01:37:06;101282.25;;;9.81;100.00
73516;BME280;61763;51.416;5.442;2022-12-20T01:39:31;101276.44;;;9.69;100.00
73516;BME280;61763;51.416;5.442;2022-12-20T01:41:57;101273.72;;;9.70;100.00
73516;BME280;61763;51.416;5.442;2022-12-20T01:46:49;101269.63;;;9.60;100.00
73516;BME280;61763;51.416;5.442;2022-12-20T01:49:25;101264.09;;;9.41;100.00
73516;BME280;61763;51.416;5.442;2022-12-20T01:51:56;101246.03;;;9.43;100.00
73516;BME280;61763;51.416;5.442;2022-12-20T01:54:38;101233.44;;;9.43;100.00
73516;BME280;61763;51.416;5.442;2022-12-20T01:57:21;101240.06;;;9.35;100.00
73516;BME280;61763;51.416;5.442;2022-12-20T01:59:49;101241.22;;;9.27;100.00
73516;BME280;61763;51.416;5.442;2022-12-20T02:02:16;101231.66;;;9.20;100.00
73516;BME280;61763;51.416;5.442;2022-12-20T02:04:42;101232.72;;;9.16;100.00
73516;BME280;61763;51.416;5.442;2022-12-20T02:07:16;101247.03;;;9.17;100.00
73516;BME280;61763;51.416;5.442;2022-12-20T02:09:43;101249.84;;;9.14;100.00
73516;BME280;61763;51.416;5.442;2022-12-20T02:12:11;101245.50;;;9.09;100.00
73516;BME280;61763;51.416;5.442;2022-12-20T02:17:40;101237.84;;;8.99;100.00
73516;BME280;61763;51.416;5.442;2022-12-20T02:20:20;101236.75;;;9.04;100.00
73516;BME280;61763;51.416;5.442;2022-12-20T02:32:19;101211.72;;;9.24;100.00
73516;BME280;61763;51.416;5.442;2022-12-20T02:34:48;101205.03;;;9.35;100.00
73516;BME280;61763;51.416;5.442;2022-12-20T02:37:14;101202.66;;;9.27;100.00
73516;BME280;61763;51.416;5.442;2022-12-20T02:39:40;101208.50;;;9.38;100.00
73516;BME280;61763;51.416;5.442;2022-12-20T02:42:10;101199.66;;;9.57;100.00
73516;BME280;61763;51.416;5.442;2022-12-20T02:44:40;101202.63;;;9.51;100.00
73516;BME280;61763;51.416;5.442;2022-12-20T02:47:35;101195.13;;;9.59;100.00
73516;BME280;61763;51.416;5.442;2022-12-20T02:50:04;101184.72;;;9.72;100.00
73516;BME280;61763;51.416;5.442;2022-12-20T02:52:32;101184.25;;;9.82;100.00
73516;BME280;61763;51.416;5.442;2022-12-20T02:54:59;101186.38;;;9.96;100.00
73516;BME280;61763;51.416;5.442;2022-12-20T02:57:30;101182.94;;;9.93;100.00
73516;BME280;61763;51.416;5.442;2022-12-20T03:00:01;101189.06;;;9.96;100.00
73516;BME280;61763;51.416;5.442;2022-12-20T03:02:29;101192.19;;;10.08;100.00
73516;BME280;61763;51.416;5.442;2022-12-20T03:05:14;101188.28;;;10.15;100.00
73516;BME280;61763;51.416;5.442;2022-12-20T03:07:39;101197.78;;;10.03;100.00
73516;BME280;61763;51.416;5.442;2022-12-20T03:10:05;101198.22;;;10.14;100.00
73516;BME280;61763;51.416;5.442;2022-12-20T03:12:31;101188.84;;;10.23;100.00
73516;BME280;61763;51.416;5.442;2022-12-20T03:14:56;101191.09;;;10.34;100.00
73516;BME280;61763;51.416;5.442;2022-12-20T03:17:21;101191.09;;;10.34;100.00
73516;BME280;61763;51.416;5.442;2022-12-20T03:19:47;101200.94;;;10.35;100.00
73516;BME280;61763;51.416;5.442;2022-12-20T03:22:12;101193.78;;;10.34;100.00
73516;BME280;61763;51.416;5.442;2022-12-20T03:24:38;101183.91;;;10.33;100.00
73516;BME280;61763;51.416;5.442;2022-12-20T03:27:03;101179.03;;;10.43;100.00
73516;BME280;61763;51.416;5.442;2022-12-20T03:29:28;101189.31;;;10.54;99.13
73516;BME280;61763;51.416;5.442;2022-12-20T03:31:54;101177.38;;;10.59;98.10
73516;BME280;61763;51.416;5.442;2022-12-20T03:34:19;101182.16;;;10.52;98.67
73516;BME280;61763;51.416;5.442;2022-12-20T03:36:44;101188.47;;;10.53;98.89
73516;BME280;61763;51.416;5.442;2022-12-20T03:39:10;101178.69;;;10.50;99.19
73516;BME280;61763;51.416;5.442;2022-12-20T03:41:35;101186.28;;;10.61;98.36
73516;BME280;61763;51.416;5.442;2022-12-20T03:44:00;101189.53;;;10.69;97.79
73516;BME280;61763;51.416;5.442;2022-12-20T03:46:26;101186.28;;;10.61;98.25
73516;BME280;61763;51.416;5.442;2022-12-20T03:48:52;101185.97;;;10.69;98.17
73516;BME280;61763;51.416;5.442;2022-12-20T03:51:17;101198.63;;;10.67;97.92
73516;BME280;61763;51.416;5.442;2022-12-20T03:53:43;101182.13;;;10.73;97.52
73516;BME280;61763;51.416;5.442;2022-12-20T03:56:09;101185.25;;;10.84;96.80
73516;BME280;61763;51.416;5.442;2022-12-20T03:58:34;101181.59;;;10.85;96.85
73516;BME280;61763;51.416;5.442;2022-12-20T04:01:00;101190.06;;;10.78;97.47
73516;BME280;61763;51.416;5.442;2022-12-20T04:03:25;101175.44;;;10.82;97.13
73516;BME280;61763;51.416;5.442;2022-12-20T04:05:50;101172.03;;;10.78;96.94
73516;BME280;61763;51.416;5.442;2022-12-20T04:08:16;101176.50;;;10.79;96.94
73516;BME280;61763;51.416;5.442;2022-12-20T04:10:41;101175.94;;;10.71;97.71
73516;BME280;61763;51.416;5.442;2022-12-20T04:13:26;101173.25;;;10.71;97.79
73516;BME280;61763;51.416;5.442;2022-12-20T04:15:51;101182.47;;;10.86;96.81
73516;BME280;61763;51.416;5.442;2022-12-20T04:18:17;101173.97;;;10.75;97.17
73516;BME280;61763;51.416;5.442;2022-12-20T04:20:44;101175.72;;;10.76;97.30
73516;BME280;61763;51.416;5.442;2022-12-20T04:23:09;101166.56;;;10.80;97.22
73516;BME280;61763;51.416;5.442;2022-12-20T04:25:34;101173.97;;;10.75;97.47
73516;BME280;61763;51.416;5.442;2022-12-20T04:28:00;101166.09;;;10.70;97.75
73516;BME280;61763;51.416;5.442;2022-12-20T04:30:25;101170.41;;;10.74;97.66
73516;BME280;61763;51.416;5.442;2022-12-20T04:32:50;101172.75;;;10.82;97.65
73516;BME280;61763;51.416;5.442;2022-12-20T04:35:19;101148.44;;;10.82;97.32
73516;BME280;61763;51.416;5.442;2022-12-20T04:37:44;101151.91;;;10.85;97.73
73516;BME280;61763;51.416;5.442;2022-12-20T04:40:10;101149.84;;;10.91;97.30
73516;BME280;61763;51.416;5.442;2022-12-20T04:42:35;101154.22;;;10.93;97.09
73516;BME280;61763;51.416;5.442;2022-12-20T04:45:01;101156.94;;;10.93;97.34
73516;BME280;61763;51.416;5.442;2022-12-20T04:47:28;101159.72;;;10.92;97.71
73516;BME280;61763;51.416;5.442;2022-12-20T04:49:53;101153.50;;;10.90;97.86
73516;BME280;61763;51.416;5.442;2022-12-20T04:52:19;101151.69;;;10.90;97.92
73516;BME280;61763;51.416;5.442;2022-12-20T04:55:03;101155.69;;;11.00;97.67
73516;BME280;61763;51.416;5.442;2022-12-20T04:57:28;101142.34;;;10.97;98.13
73516;BME280;61763;51.416;5.442;2022-12-20T04:59:54;101142.19;;;11.00;98.01
73516;BME280;61763;51.416;5.442;2022-12-20T05:02:19;101139.66;;;10.97;98.35
73516;BME280;61763;51.416;5.442;2022-12-20T05:04:44;101144.38;;;10.92;98.93
73516;BME280;61763;51.416;5.442;2022-12-20T05:07:10;101143.59;;;10.90;99.07
73516;BME280;61763;51.416;5.442;2022-12-20T05:09:35;101140.09;;;10.88;99.19
73516;BME280;61763;51.416;5.442;2022-12-20T05:12:01;101136.63;;;10.84;99.80
73516;BME280;61763;51.416;5.442;2022-12-20T05:14:26;101129.41;;;10.85;99.85
73516;BME280;61763;51.416;5.442;2022-12-20T05:16:51;101133.28;;;10.79;100.00
73516;BME280;61763;51.416;5.442;2022-12-20T05:19:16;101127.97;;;10.78;100.00
73516;BME280;61763;51.416;5.442;2022-12-20T05:21:42;101124.38;;;10.77;100.00
73516;BME280;61763;51.416;5.442;2022-12-20T05:24:26;101123.25;;;10.62;100.00
73516;BME280;61763;51.416;5.442;2022-12-20T05:27:10;101113.34;;;10.63;100.00
73516;BME280;61763;51.416;5.442;2022-12-20T05:29:35;101119.63;;;10.63;100.00
73516;BME280;61763;51.416;5.442;2022-12-20T05:32:00;101114.16;;;10.65;100.00
73516;BME280;61763;51.416;5.442;2022-12-20T05:34:26;101107.28;;;10.58;100.00
73516;BME280;61763;51.416;5.442;2022-12-20T05:36:51;101115.47;;;10.56;100.00
73516;BME280;61763;51.416;5.442;2022-12-20T05:39:16;101109.38;;;10.51;100.00
73516;BME280;61763;51.416;5.442;2022-12-20T05:41:43;101108.50;;;10.50;100.00
73516;BME280;61763;51.416;5.442;2022-12-20T05:44:08;101097.00;;;10.47;100.00
73516;BME280;61763;51.416;5.442;2022-12-20T05:46:34;101104.13;;;10.48;100.00
73516;BME280;61763;51.416;5.442;2022-12-20T05:48:59;101104.78;;;10.34;100.00
73516;BME280;61763;51.416;5.442;2022-12-20T05:51:25;101102.78;;;10.38;100.00
73516;BME280;61763;51.416;5.442;2022-12-20T05:53:50;101099.78;;;10.45;100.00
73516;BME280;61763;51.416;5.442;2022-12-20T05:56:16;101099.63;;;10.48;100.00
73516;BME280;61763;51.416;5.442;2022-12-20T05:58:41;101089.38;;;10.36;100.00
73516;BME280;61763;51.416;5.442;2022-12-20T06:01:07;101083.13;;;10.36;100.00
73516;BME280;61763;51.416;5.442;2022-12-20T06:03:34;101088.84;;;10.28;100.00
73516;BME280;61763;51.416;5.442;2022-12-20T06:05:59;101081.13;;;10.18;100.00
73516;BME280;61763;51.416;5.442;2022-12-20T06:08:25;101073.50;;;10.49;99.91
73516;BME280;61763;51.416;5.442;2022-12-20T06:10:50;101069.81;;;10.51;99.09
73516;BME280;61763;51.416;5.442;2022-12-20T06:13:16;101050.59;;;10.39;99.24
73516;BME280;61763;51.416;5.442;2022-12-20T06:15:45;101057.81;;;10.17;100.00
73516;BME280;61763;51.416;5.442;2022-12-20T06:18:11;101049.75;;;9.97;100.00
73516;BME280;61763;51.416;5.442;2022-12-20T06:20:36;101053.19;;;10.00;100.00
73516;BME280;61763;51.416;5.442;2022-12-20T06:23:02;101049.63;;;10.00;100.00
73516;BME280;61763;51.416;5.442;2022-12-20T06:25:28;101052.59;;;9.94;100.00
73516;BME280;61763;51.416;5.442;2022-12-20T06:27:54;101050.63;;;9.97;100.00
73516;BME280;61763;51.416;5.442;2022-12-20T06:30:19;101057.72;;;10.00;99.85
73516;BME280;61763;51.416;5.442;2022-12-20T06:32:45;101061.59;;;10.13;99.05
73516;BME280;61763;51.416;5.442;2022-12-20T06:35:11;101059.31;;;10.04;99.05
73516;BME280;61763;51.416;5.442;2022-12-20T06:37:36;101065.50;;;10.06;98.38
73516;BME280;61763;51.416;5.442;2022-12-20T06:40:05;101060.78;;;10.11;98.23
73516;BME280;61763;51.416;5.442;2022-12-20T06:42:31;101055.00;;;10.21;97.79
73516;BME280;61763;51.416;5.442;2022-12-20T06:44:56;101049.13;;;10.11;97.73
73516;BME280;61763;51.416;5.442;2022-12-20T06:47:22;101033.47;;;10.19;96.69
73516;BME280;61763;51.416;5.442;2022-12-20T06:49:47;101033.91;;;10.29;96.47
73516;BME280;61763;51.416;5.442;2022-12-20T06:52:12;101038.19;;;10.34;95.69
73516;BME280;61763;51.416;5.442;2022-12-20T06:54:38;101042.97;;;10.28;95.82
73516;BME280;61763;51.416;5.442;2022-12-20T06:57:03;101031.94;;;10.53;94.51
73516;BME280;61763;51.416;5.442;2022-12-20T06:59:28;101053.16;;;10.42;94.60
73516;BME280;61763;51.416;5.442;2022-12-20T07:01:54;101047.41;;;10.29;95.69
73516;BME280;61763;51.416;5.442;2022-12-20T07:04:19;101057.53;;;10.24;96.05
73516;BME280;61763;51.416;5.442;2022-12-20T07:06:46;101055.34;;;10.32;95.42
73516;BME280;61763;51.416;5.442;2022-12-20T07:09:12;101054.91;;;10.43;94.41
73516;BME280;61763;51.416;5.442;2022-12-20T07:11:37;101040.13;;;10.31;94.87
73516;BME280;61763;51.416;5.442;2022-12-20T07:14:02;101048.69;;;10.20;95.50
73516;BME280;61763;51.416;5.442;2022-12-20T07:16:28;101056.31;;;10.31;94.99
73516;BME280;61763;51.416;5.442;2022-12-20T07:18:53;101059.88;;;10.31;94.30
73516;BME280;61763;51.416;5.442;2022-12-20T07:21:20;101055.50;;;10.29;94.57
73516;BME280;61763;51.416;5.442;2022-12-20T07:23:46;101051.84;;;10.30;94.35
73516;BME280;61763;51.416;5.442;2022-12-20T07:26:12;101053.00;;;10.24;94.77
73516;BME280;61763;51.416;5.442;2022-12-20T07:28:39;101062.94;;;10.24;94.92
73516;BME280;61763;51.416;5.442;2022-12-20T07:31:04;101050.09;;;10.29;94.09
73516;BME280;61763;51.416;5.442;2022-12-20T07:33:31;101056.94;;;10.38;93.67
73516;BME280;61763;51.416;5.442;2022-12-20T07:36:01;101064.03;;;10.59;92.27
73516;BME280;61763;51.416;5.442;2022-12-20T07:38:27;101063.50;;;10.70;91.73
73516;BME280;61763;51.416;5.442;2022-12-20T07:40:53;101065.50;;;10.66;91.62
73516;BME280;61763;51.416;5.442;2022-12-20T07:43:18;101075.44;;;10.66;91.30
73516;BME280;61763;51.416;5.442;2022-12-20T07:45:44;101070.44;;;10.76;90.22
73516;BME280;61763;51.416;5.442;2022-12-20T07:48:09;101075.69;;;10.60;91.35
73516;BME280;61763;51.416;5.442;2022-12-20T07:50:34;101072.66;;;10.67;91.35
73516;BME280;61763;51.416;5.442;2022-12-20T07:53:01;101079.63;;;10.72;90.78
73516;BME280;61763;51.416;5.442;2022-12-20T07:55:26;101083.50;;;10.85;89.99
73516;BME280;61763;51.416;5.442;2022-12-20T07:57:57;101082.06;;;10.78;90.24
73516;BME280;61763;51.416;5.442;2022-12-20T08:00:25;101084.09;;;10.92;89.37
73516;BME280;61763;51.416;5.442;2022-12-20T08:03:15;101076.16;;;10.89;89.66
73516;BME280;61763;51.416;5.442;2022-12-20T08:05:46;101074.53;;;11.03;90.00
73516;BME280;61763;51.416;5.442;2022-12-20T08:08:12;101083.38;;;10.88;90.29
73516;BME280;61763;51.416;5.442;2022-12-20T08:10:38;101087.50;;;10.95;90.94
73516;BME280;61763;51.416;5.442;2022-12-20T08:13:05;101084.88;;;10.94;91.25
73516;BME280;61763;51.416;5.442;2022-12-20T08:15:33;101079.63;;;10.91;91.66
73516;BME280;61763;51.416;5.442;2022-12-20T08:17:59;101073.91;;;10.79;93.44
73516;BME280;61763;51.416;5.442;2022-12-20T08:20:24;101086.78;;;10.73;95.08
73516;BME280;61763;51.416;5.442;2022-12-20T08:22:50;101082.41;;;10.70;96.11
73516;BME280;61763;51.416;5.442;2022-12-20T08:25:15;101083.78;;;10.60;97.16
73516;BME280;61763;51.416;5.442;2022-12-20T08:27:41;101074.75;;;10.61;97.09
73516;BME280;61763;51.416;5.442;2022-12-20T08:30:07;101079.50;;;10.56;98.32
73516;BME280;61763;51.416;5.442;2022-12-20T08:32:34;101068.03;;;10.50;98.52
73516;BME280;61763;51.416;5.442;2022-12-20T08:35:00;101073.75;;;10.63;97.87
73516;BME280;61763;51.416;5.442;2022-12-20T08:37:26;101077.59;;;10.58;98.63
73516;BME280;61763;51.416;5.442;2022-12-20T08:39:51;101081.59;;;10.49;98.57
73516;BME280;61763;51.416;5.442;2022-12-20T08:42:17;101070.28;;;10.41;100.00
73516;BME280;61763;51.416;5.442;2022-12-20T08:44:42;101064.63;;;10.26;100.00
73516;BME280;61763;51.416;5.442;2022-12-20T08:47:08;101070.47;;;10.15;100.00
73516;BME280;61763;51.416;5.442;2022-12-20T08:49:34;101067.22;;;10.09;100.00
73516;BME280;61763;51.416;5.442;2022-12-20T08:52:00;101063.31;;;9.95;100.00
73516;BME280;61763;51.416;5.442;2022-12-20T08:54:26;101068.00;;;9.90;100.00
73516;BME280;61763;51.416;5.442;2022-12-20T08:56:51;101058.91;;;9.93;100.00
73516;BME280;61763;51.416;5.442;2022-12-20T08:59:18;101064.16;;;9.96;100.00
73516;BME280;61763;51.416;5.442;2022-12-20T09:01:43;101054.94;;;10.02;100.00
73516;BME280;61763;51.416;5.442;2022-12-20T09:04:10;101060.19;;;10.05;100.00
73516;BME280;61763;51.416;5.442;2022-12-20T09:06:36;101048.97;;;10.14;100.00
73516;BME280;61763;51.416;5.442;2022-12-20T09:09:04;101043.59;;;10.14;100.00
73516;BME280;61763;51.416;5.442;2022-12-20T09:11:30;101043.06;;;10.26;100.00
73516;BME280;61763;51.416;5.442;2022-12-20T09:13:57;101032.78;;;10.34;100.00
73516;BME280;61763;51.416;5.442;2022-12-20T09:16:25;101042.00;;;10.29;100.00
73516;BME280;61763;51.416;5.442;2022-12-20T09:18:53;101045.28;;;10.37;100.00
73516;BME280;61763;51.416;5.442;2022-12-20T09:21:19;101055.13;;;10.38;100.00
73516;BME280;61763;51.416;5.442;2022-12-20T09:23:45;101044.41;;;10.37;100.00
73516;BME280;61763;51.416;5.442;2022-12-20T09:26:13;101043.75;;;10.50;100.00
73516;BME280;61763;51.416;5.442;2022-12-20T09:28:39;101048.38;;;10.67;100.00
73516;BME280;61763;51.416;5.442;2022-12-20T09:31:10;101052.50;;;10.75;100.00
73516;BME280;61763;51.416;5.442;2022-12-20T09:33:36;101052.44;;;10.76;100.00
73516;BME280;61763;51.416;5.442;2022-12-20T09:36:02;101046.75;;;10.82;100.00
73516;BME280;61763;51.416;5.442;2022-12-20T09:38:29;101037.84;;;10.80;100.00
73516;BME280;61763;51.416;5.442;2022-12-20T09:40:58;101041.56;;;10.78;100.00
73516;BME280;61763;51.416;5.442;2022-12-20T09:43:27;101042.28;;;10.81;100.00
73516;BME280;61763;51.416;5.442;2022-12-20T09:45:55;101053.53;;;10.72;100.00
73516;BME280;61763;51.416;5.442;2022-12-20T09:48:24;101052.78;;;10.87;100.00
73516;BME280;61763;51.416;5.442;2022-12-20T09:56:12;101043.91;;;10.85;100.00
73516;BME280;61763;51.416;5.442;2022-12-20T10:01:25;101035.34;;;10.76;100.00
73516;BME280;61763;51.416;5.442;2022-12-20T10:03:53;101048.38;;;10.86;100.00
73516;BME280;61763;51.416;5.442;2022-12-20T10:12:19;101032.25;;;11.02;99.89
73516;BME280;61763;51.416;5.442;2022-12-20T10:15:16;101032.16;;;11.23;98.10
73516;BME280;61763;51.416;5.442;2022-12-20T10:18:01;101038.69;;;11.19;98.52
73516;BME280;61763;51.416;5.442;2022-12-20T10:23:38;101036.94;;;11.35;97.02
73516;BME280;61763;51.416;5.442;2022-12-20T10:26:08;101046.16;;;11.31;98.10
73516;BME280;61763;51.416;5.442;2022-12-20T10:28:35;101040.09;;;11.26;100.00
73516;BME280;61763;51.416;5.442;2022-12-20T10:31:03;101045.34;;;10.93;100.00
73516;BME280;61763;51.416;5.442;2022-12-20T10:33:30;101041.69;;;10.75;100.00
73516;BME280;61763;51.416;5.442;2022-12-20T10:36:18;101043.09;;;10.64;100.00
73516;BME280;61763;51.416;5.442;2022-12-20T10:38:46;101034.94;;;10.66;100.00
73516;BME280;61763;51.416;5.442;2022-12-20T10:41:16;101047.53;;;10.65;100.00
73516;BME280;61763;51.416;5.442;2022-12-20T10:43:46;101034.19;;;10.62;100.00
73516;BME280;61763;51.416;5.442;2022-12-20T10:46:13;101035.97;;;10.63;100.00
73516;BME280;61763;51.416;5.442;2022-12-20T10:48:44;101028.16;;;10.57;100.00
73516;BME280;61763;51.416;5.442;2022-12-20T10:53:36;101021.84;;;10.38;100.00
73516;BME280;61763;51.416;5.442;2022-12-20T10:56:21;101027.59;;;10.30;100.00
73516;BME280;61763;51.416;5.442;2022-12-20T10:59:01;101019.94;;;10.21;100.00
73516;BME280;61763;51.416;5.442;2022-12-20T11:01:30;101019.59;;;10.08;100.00
73516;BME280;61763;51.416;5.442;2022-12-20T11:04:02;101018.59;;;10.10;100.00
73516;BME280;61763;51.416;5.442;2022-12-20T11:06:48;101023.91;;;10.12;100.00
73516;BME280;61763;51.416;5.442;2022-12-20T11:14:22;101018.84;;;10.25;100.00
73516;BME280;61763;51.416;5.442;2022-12-20T11:16:50;101017.72;;;10.29;100.00
73516;BME280;61763;51.416;5.442;2022-12-20T11:22:15;101012.81;;;10.39;100.00
73516;BME280;61763;51.416;5.442;2022-12-20T11:30:13;101012.78;;;10.20;100.00
73516;BME280;61763;51.416;5.442;2022-12-20T11:33:02;101003.66;;;10.22;100.00
73516;BME280;61763;51.416;5.442;2022-12-20T11:38:41;100998.75;;;10.11;100.00
73516;BME280;61763;51.416;5.442;2022-12-20T11:41:47;100996.63;;;9.99;100.00
73516;BME280;61763;51.416;5.442;2022-12-20T11:44:24;100992.84;;;10.03;100.00
73516;BME280;61763;51.416;5.442;2022-12-20T11:52:47;100988.75;;;10.34;100.00
73516;BME280;61763;51.416;5.442;2022-12-20T11:55:19;100988.13;;;10.27;100.00
73516;BME280;61763;51.416;5.442;2022-12-20T12:00:18;100986.09;;;10.32;100.00
73516;BME280;61763;51.416;5.442;2022-12-20T12:03:00;100973.56;;;10.31;100.00
73516;BME280;61763;51.416;5.442;2022-12-20T12:05:42;100978.50;;;10.22;100.00
73516;BME280;61763;51.416;5.442;2022-12-20T12:08:35;100963.63;;;10.32;100.00
73516;BME280;61763;51.416;5.442;2022-12-20T12:11:11;100976.41;;;10.28;100.00
73516;BME280;61763;51.416;5.442;2022-12-20T12:13:39;100967.13;;;10.36;100.00
73516;BME280;61763;51.416;5.442;2022-12-20T12:16:08;100964.97;;;10.42;100.00
73516;BME280;61763;51.416;5.442;2022-12-20T12:18:36;100962.78;;;10.31;100.00
73516;BME280;61763;51.416;5.442;2022-12-20T12:26:23;100971.31;;;10.22;100.00
73516;BME280;61763;51.416;5.442;2022-12-20T12:29:05;100962.47;;;10.18;100.00
73516;BME280;61763;51.416;5.442;2022-12-20T12:34:04;100964.97;;;10.23;100.00
73516;BME280;61763;51.416;5.442;2022-12-20T12:44:52;100967.28;;;10.12;100.00
73516;BME280;61763;51.416;5.442;2022-12-20T12:50:00;100967.56;;;10.06;100.00
73516;BME280;61763;51.416;5.442;2022-12-20T12:52:49;100965.22;;;10.17;100.00
73516;BME280;61763;51.416;5.442;2022-12-20T12:55:34;100959.06;;;10.15;100.00
73516;BME280;61763;51.416;5.442;2022-12-20T12:58:33;100954.66;;;10.12;100.00
73516;BME280;61763;51.416;5.442;2022-12-20T13:01:10;100963.13;;;10.05;100.00
73516;BME280;61763;51.416;5.442;2022-12-20T13:03:47;100962.13;;;10.07;100.00
73516;BME280;61763;51.416;5.442;2022-12-20T13:11:41;100945.00;;;9.88;100.00
73516;BME280;61763;51.416;5.442;2022-12-20T13:16:41;100942.00;;;9.95;100.00
73516;BME280;61763;51.416;5.442;2022-12-20T13:19:17;100948.59;;;9.88;100.00
73516;BME280;61763;51.416;5.442;2022-12-20T13:21:46;100956.00;;;9.83;100.00
73516;BME280;61763;51.416;5.442;2022-12-20T13:24:36;100946.13;;;9.84;100.00
73516;BME280;61763;51.416;5.442;2022-12-20T13:27:13;100953.38;;;9.81;100.00
73516;BME280;61763;51.416;5.442;2022-12-20T13:29:55;100954.38;;;9.79;100.00
73516;BME280;61763;51.416;5.442;2022-12-20T13:37:57;100954.09;;;9.66;100.00
73516;BME280;61763;51.416;5.442;2022-12-20T13:40:42;100960.75;;;9.57;100.00
73516;BME280;61763;51.416;5.442;2022-12-20T13:43:22;100956.31;;;9.56;100.00
73516;BME280;61763;51.416;5.442;2022-12-20T13:45:52;100951.72;;;9.58;100.00
73516;BME280;61763;51.416;5.442;2022-12-20T13:48:25;100955.31;;;9.59;100.00
73516;BME280;61763;51.416;5.442;2022-12-20T13:50:54;100957.19;;;9.57;100.00
73516;BME280;61763;51.416;5.442;2022-12-20T13:53:20;100954.75;;;9.51;100.00
73516;BME280;61763;51.416;5.442;2022-12-20T13:55:47;100965.59;;;9.49;100.00
73516;BME280;61763;51.416;5.442;2022-12-20T13:58:26;100963.91;;;9.46;100.00
73516;BME280;61763;51.416;5.442;2022-12-20T14:00:53;100951.47;;;9.44;100.00
73516;BME280;61763;51.416;5.442;2022-12-20T14:03:29;100951.13;;;9.52;100.00
73516;BME280;61763;51.416;5.442;2022-12-20T14:05:59;100948.78;;;9.44;100.00
73516;BME280;61763;51.416;5.442;2022-12-20T14:08:32;100952.28;;;9.46;100.00
73516;BME280;61763;51.416;5.442;2022-12-20T14:11:12;100955.09;;;9.43;100.00
73516;BME280;61763;51.416;5.442;2022-12-20T14:13:38;100950.06;;;9.35;100.00
73516;BME280;61763;51.416;5.442;2022-12-20T14:16:16;100947.09;;;9.41;100.00
73516;BME280;61763;51.416;5.442;2022-12-20T14:18:48;100945.41;;;9.39;100.00
73516;BME280;61763;51.416;5.442;2022-12-20T14:21:14;100950.00;;;9.37;100.00
73516;BME280;61763;51.416;5.442;2022-12-20T14:23:46;100948.84;;;9.42;100.00
73516;BME280;61763;51.416;5.442;2022-12-20T14:26:18;100953.41;;;9.40;100.00
73516;BME280;61763;51.416;5.442;2022-12-20T14:28:50;100947.03;;;9.43;100.00